Terminal Aerodrome Forecast
Issued by NWS

Home | Current Version | Previous Version | Text Only | Print | Product List | Glossary On
Versions: 1 2 3 4 5 6 7 8 9 10 11 12 13 14 15 16
429
FTPA31 PHFO 061306 AAA
TAFHOG
TAF AMD
PHOG 061306Z 0613/0712 08005KT P6SM SCT025 BKN035
      TEMPO 0613/0617 BKN025
     FM062000 02010KT P6SM FEW030 SCT050
     FM070500 08005KT P6SM FEW030 SCT050=

USA.gov is the U.S. government's official web portal to all federal, state and local government web resources and services.